Time;durP1;ratioP1;P1;durP2;ratioP2;P2;SDS_P1;SDS_P2;PMS_P1;PMS_P2;Temp;Humidity;BMP_temperature;BMP_pressure;BME280_temperature;BME280_humidity;BME280_pressure;Samples;Min_cycle;Max_cycle;Signal;HPM_P1;HPM_P2
2021/10/02 00:33:56;;;;;;;9.10;2.80;;;10.70;99.90;;;;;;5013954;28;20100;-88
2021/10/02 00:44:54;;;;;;;6.22;3.08;;;11.00;99.90;;;;;;5012287;28;20081;-89
2021/10/02 00:47:25;;;;;;;6.25;3.50;;;11.00;99.90;;;;;;5008213;28;20137;-89
2021/10/02 00:49:53;;;;;;;9.63;3.47;;;10.90;99.90;;;;;;4998878;28;20097;-89
2021/10/02 00:52:20;;;;;;;5.40;3.30;;;11.00;99.90;;;;;;5020894;28;20112;-88
2021/10/02 00:54:49;;;;;;;6.13;3.40;;;10.80;99.90;;;;;;5012722;28;20061;-87
2021/10/02 00:57:17;;;;;;;6.50;3.22;;;10.80;99.90;;;;;;5012103;28;20077;-87
2021/10/02 00:59:48;;;;;;;7.85;3.88;;;10.70;99.90;;;;;;5009992;28;20084;-89
2021/10/02 01:02:25;;;;;;;10.15;3.90;;;10.80;99.90;;;;;;5011668;28;20050;-89
2021/10/02 01:05:13;;;;;;;6.97;3.50;;;10.70;99.90;;;;;;4996028;28;20084;-89
2021/10/02 01:07:56;;;;;;;6.03;3.33;;;10.70;99.90;;;;;;5011893;28;20131;-89
2021/10/02 01:10:32;;;;;;;10.40;3.47;;;10.70;99.90;;;;;;5005466;28;20078;-87
2021/10/02 01:13:14;;;;;;;6.53;3.53;;;10.80;99.90;;;;;;5017457;28;20128;-88
2021/10/02 01:15:52;;;;;;;7.40;3.35;;;10.70;99.90;;;;;;5008985;28;20078;-88
2021/10/02 01:18:31;;;;;;;6.93;4.05;;;10.70;99.90;;;;;;5008201;28;20085;-88
2021/10/02 01:21:15;;;;;;;11.82;3.65;;;10.70;99.90;;;;;;4997616;28;20136;-89
2021/10/02 01:24:10;;;;;;;7.28;3.75;;;10.70;99.90;;;;;;5007394;28;20101;-88
2021/10/02 01:27:14;;;;;;;7.15;4.00;;;10.70;99.90;;;;;;4993123;28;20046;-88
2021/10/02 01:29:43;;;;;;;7.97;3.78;;;10.70;99.90;;;;;;5005714;28;20132;-89
2021/10/02 01:32:18;;;;;;;10.38;3.72;;;10.90;99.90;;;;;;5013689;28;20388;-87
2021/10/02 01:37:45;;;;;;;10.07;4.28;;;10.90;99.90;;;;;;5004316;28;20136;-88
2021/10/02 01:48:36;;;;;;;5.70;3.70;;;11.00;99.90;;;;;;5011547;28;20046;-89
2021/10/02 01:51:04;;;;;;;11.00;4.00;;;11.10;99.90;;;;;;5011362;28;20053;-89
2021/10/02 01:53:34;;;;;;;8.77;4.13;;;11.20;99.90;;;;;;5027495;28;20730;-90
2021/10/02 01:56:06;;;;;;;6.28;3.85;;;11.20;99.90;;;;;;5008297;28;20574;-90
2021/10/02 01:58:34;;;;;;;6.55;3.78;;;11.10;99.90;;;;;;5006189;28;20046;-89
2021/10/02 02:01:04;;;;;;;10.63;4.10;;;11.10;99.90;;;;;;5022612;28;20080;-88
2021/10/02 02:03:36;;;;;;;8.40;3.85;;;11.00;99.90;;;;;;5001521;28;20077;-89
2021/10/02 02:06:04;;;;;;;9.48;3.85;;;11.00;99.90;;;;;;5007034;28;20062;-89
2021/10/02 02:08:34;;;;;;;7.65;4.07;;;11.00;99.90;;;;;;5010485;28;20042;-88
2021/10/02 02:11:22;;;;;;;11.45;3.85;;;11.00;99.90;;;;;;5008231;28;20156;-90
2021/10/02 02:13:50;;;;;;;11.73;4.30;;;10.90;99.90;;;;;;5010241;28;20049;-89
2021/10/02 02:16:17;;;;;;;11.25;4.25;;;10.90;99.90;;;;;;5011217;28;20133;-89
2021/10/02 02:18:44;;;;;;;9.40;4.43;;;10.80;99.90;;;;;;5010389;28;20042;-89
2021/10/02 02:21:13;;;;;;;8.60;4.43;;;10.70;99.90;;;;;;4996126;28;20121;-89
2021/10/02 02:23:40;;;;;;;9.57;4.35;;;10.70;99.90;;;;;;5018706;28;20119;-90
2021/10/02 02:26:09;;;;;;;5.82;3.45;;;10.60;99.90;;;;;;5010894;28;20143;-88
2021/10/02 02:28:39;;;;;;;8.10;3.92;;;10.60;99.90;;;;;;5024676;28;20121;-89
2021/10/02 02:31:07;;;;;;;9.07;4.18;;;10.50;99.90;;;;;;5007597;28;20093;-88
2021/10/02 02:33:39;;;;;;;10.02;4.10;;;10.50;99.90;;;;;;5005595;28;20046;-89
2021/10/02 02:36:06;;;;;;;34.22;6.28;;;10.40;99.90;;;;;;5010950;28;20586;-89
2021/10/02 02:38:33;;;;;;;6.15;3.45;;;10.50;99.90;;;;;;5007182;28;20125;-89
2021/10/02 02:41:02;;;;;;;8.20;4.15;;;10.30;99.90;;;;;;5007808;28;20065;-89
2021/10/02 02:43:34;;;;;;;7.78;3.88;;;10.40;99.90;;;;;;4997259;28;20089;-89
2021/10/02 02:46:30;;;;;;;13.65;4.30;;;10.40;99.90;;;;;;4999947;28;20046;-89
2021/10/02 02:49:15;;;;;;;12.15;4.03;;;10.30;99.90;;;;;;5000916;28;20080;-89
2021/10/02 02:51:54;;;;;;;5.60;3.63;;;10.20;99.90;;;;;;5010039;28;20716;-89
2021/10/02 02:54:36;;;;;;;9.70;4.53;;;10.20;99.90;;;;;;5007812;28;20443;-89
2021/10/02 02:57:34;;;;;;;8.25;4.20;;;10.20;99.90;;;;;;5006468;28;20465;-90
2021/10/02 03:00:07;;;;;;;7.93;4.22;;;10.20;99.90;;;;;;4978716;28;20129;-89
2021/10/02 03:02:36;;;;;;;7.05;3.83;;;10.20;99.90;;;;;;5002256;28;20086;-89
2021/10/02 03:05:06;;;;;;;9.02;4.28;;;10.30;99.90;;;;;;5006161;28;20134;-88
2021/10/02 03:07:37;;;;;;;6.22;4.15;;;10.20;99.90;;;;;;5006536;28;20081;-89
2021/10/02 03:10:06;;;;;;;8.27;4.50;;;10.20;99.90;;;;;;5004812;28;20038;-89
2021/10/02 03:12:41;;;;;;;7.70;4.10;;;10.20;99.90;;;;;;5013469;28;20141;-89
2021/10/02 03:15:12;;;;;;;13.23;4.82;;;10.20;99.90;;;;;;5010625;28;20132;-89
2021/10/02 03:17:41;;;;;;;11.40;4.72;;;10.30;99.90;;;;;;5006677;28;20145;-89
2021/10/02 03:20:11;;;;;;;8.05;4.15;;;10.20;99.90;;;;;;5007657;28;20105;-89
2021/10/02 03:22:39;;;;;;;10.73;4.03;;;10.40;99.90;;;;;;5009002;28;20137;-89
2021/10/02 03:25:07;;;;;;;10.02;4.53;;;10.30;99.90;;;;;;5003333;28;20050;-90
2021/10/02 03:27:35;;;;;;;11.68;4.78;;;10.40;99.90;;;;;;5007570;28;20137;-89
2021/10/02 03:30:02;;;;;;;10.98;4.28;;;10.60;99.90;;;;;;5007171;28;20045;-89
2021/10/02 03:32:29;;;;;;;8.75;4.65;;;10.40;99.90;;;;;;5009801;28;20459;-90
2021/10/02 03:34:57;;;;;;;10.50;4.55;;;10.30;99.90;;;;;;5010128;28;20054;-89
2021/10/02 03:37:24;;;;;;;11.77;4.95;;;10.40;99.90;;;;;;5006424;28;20133;-89
2021/10/02 03:39:56;;;;;;;9.70;4.63;;;10.40;99.90;;;;;;4995502;28;20142;-89
2021/10/02 03:42:24;;;;;;;11.38;4.63;;;10.40;99.90;;;;;;5005618;28;20058;-89
2021/10/02 03:44:53;;;;;;;11.38;4.47;;;10.40;99.90;;;;;;5004203;28;20061;-88
2021/10/02 03:47:21;;;;;;;10.50;5.05;;;10.40;99.90;;;;;;4996203;28;20057;-88
2021/10/02 03:49:49;;;;;;;9.07;4.65;;;10.40;99.90;;;;;;5009499;28;20050;-88
2021/10/02 03:52:16;;;;;;;11.45;4.18;;;10.70;99.90;;;;;;4990579;28;20133;-88
2021/10/02 03:54:43;;;;;;;8.13;4.57;;;10.50;99.90;;;;;;5007017;28;20467;-88
2021/10/02 03:57:10;;;;;;;8.73;4.25;;;10.50;99.90;;;;;;4996917;28;20141;-88
2021/10/02 03:59:36;;;;;;;12.15;4.60;;;10.60;99.90;;;;;;5005003;28;20825;-88
2021/10/02 04:02:03;;;;;;;5.93;4.55;;;10.50;99.90;;;;;;5007890;28;20579;-88
2021/10/02 04:04:32;;;;;;;9.52;4.10;;;10.50;99.90;;;;;;5008674;28;20534;-88
2021/10/02 04:06:59;;;;;;;10.43;4.75;;;10.50;99.90;;;;;;5027573;28;20112;-88
2021/10/02 04:09:34;;;;;;;9.30;4.18;;;10.60;99.90;;;;;;5014186;28;20533;-88
2021/10/02 04:12:00;;;;;;;11.60;4.67;;;10.60;99.90;;;;;;5001536;28;20042;-89
2021/10/02 04:14:27;;;;;;;13.43;4.75;;;10.60;99.90;;;;;;5013801;28;20308;-89
2021/10/02 04:16:54;;;;;;;13.90;4.47;;;10.60;99.90;;;;;;5025550;28;20065;-88
2021/10/02 04:19:21;;;;;;;6.55;3.90;;;10.70;99.90;;;;;;5007755;28;20077;-88
2021/10/02 04:21:48;;;;;;;8.23;4.00;;;10.70;99.90;;;;;;5002144;28;20139;-89
2021/10/02 04:24:14;;;;;;;6.43;3.85;;;10.70;99.90;;;;;;5021699;28;20196;-89
2021/10/02 04:26:41;;;;;;;10.10;4.68;;;10.70;99.90;;;;;;5008173;28;20046;-89
2021/10/02 04:29:08;;;;;;;11.40;4.47;;;10.70;99.90;;;;;;5009126;28;20116;-89
2021/10/02 04:31:35;;;;;;;11.20;4.80;;;10.70;99.90;;;;;;5008402;28;20061;-89
2021/10/02 04:34:02;;;;;;;10.30;4.55;;;10.90;99.90;;;;;;5009669;28;20112;-89
2021/10/02 04:36:30;;;;;;;11.75;5.25;;;10.80;99.90;;;;;;5024013;28;20750;-89
2021/10/02 04:38:57;;;;;;;8.43;4.68;;;10.80;99.90;;;;;;5022436;28;20050;-89
2021/10/02 04:41:24;;;;;;;13.32;4.70;;;10.80;99.90;;;;;;5009241;28;20112;-90
2021/10/02 04:43:51;;;;;;;10.15;4.80;;;10.80;99.90;;;;;;5010291;28;20077;-90
2021/10/02 04:46:19;;;;;;;9.30;4.55;;;10.80;99.90;;;;;;5004844;28;20491;-90
2021/10/02 04:48:47;;;;;;;8.07;4.55;;;10.80;99.90;;;;;;5010301;28;20050;-89
2021/10/02 04:51:14;;;;;;;8.55;4.97;;;10.90;99.90;;;;;;5010936;28;20049;-89
2021/10/02 04:53:42;;;;;;;35.70;5.82;;;10.70;99.90;;;;;;5013063;28;20069;-89
2021/10/02 04:56:11;;;;;;;9.73;5.15;;;10.80;99.90;;;;;;5007410;28;20523;-89
2021/10/02 04:58:38;;;;;;;14.52;4.88;;;10.80;99.90;;;;;;5011393;28;20089;-89
2021/10/02 05:01:06;;;;;;;8.15;5.35;;;10.70;99.90;;;;;;5006550;28;20062;-89
2021/10/02 05:03:36;;;;;;;7.30;4.65;;;10.90;99.90;;;;;;4998121;28;20700;-89
2021/10/02 05:06:04;;;;;;;8.48;4.32;;;11.00;99.90;;;;;;5026781;28;20050;-91
2021/10/02 05:08:32;;;;;;;9.70;4.00;;;10.70;99.90;;;;;;5028626;28;20557;-90
2021/10/02 05:11:00;;;;;;;11.50;4.30;;;10.90;99.90;;;;;;5007816;28;20460;-90
2021/10/02 05:13:28;;;;;;;12.48;4.32;;;10.80;99.90;;;;;;5011726;28;20050;-90
2021/10/02 05:15:54;;;;;;;6.78;4.10;;;10.80;99.90;;;;;;5007322;28;20046;-91
2021/10/02 05:18:21;;;;;;;10.55;4.05;;;10.80;99.90;;;;;;5012228;28;20073;-90
2021/10/02 05:20:48;;;;;;;9.65;4.40;;;10.90;99.90;;;;;;5012869;28;20092;-90
2021/10/02 05:23:15;;;;;;;7.18;4.30;;;10.80;99.90;;;;;;5009283;28;20111;-90
2021/10/02 05:25:41;;;;;;;7.57;4.35;;;10.70;99.90;;;;;;5008390;28;20068;-90
2021/10/02 05:28:08;;;;;;;8.52;4.35;;;11.00;99.90;;;;;;5012047;28;20573;-90
2021/10/02 05:30:35;;;;;;;9.05;4.20;;;10.90;99.90;;;;;;5007338;28;20050;-91
2021/10/02 05:33:05;;;;;;;9.82;4.72;;;10.90;99.90;;;;;;5004273;28;20049;-91
2021/10/02 05:35:33;;;;;;;9.00;4.93;;;10.80;99.90;;;;;;5001137;28;20511;-90
2021/10/02 05:38:01;;;;;;;10.40;5.25;;;10.90;99.90;;;;;;5009357;28;20054;-90
2021/10/02 05:40:27;;;;;;;8.13;5.15;;;10.90;99.90;;;;;;5010751;28;20108;-91
2021/10/02 05:42:54;;;;;;;8.27;5.20;;;10.70;99.90;;;;;;5010570;28;20415;-91
2021/10/02 05:45:21;;;;;;;10.50;5.90;;;10.70;99.90;;;;;;4994857;28;20089;-92
2021/10/02 05:47:48;;;;;;;13.75;5.22;;;10.60;99.90;;;;;;4996134;28;20050;-93
2021/10/02 05:50:15;;;;;;;12.70;5.57;;;10.60;99.90;;;;;;4995393;28;20043;-93
2021/10/02 05:52:41;;;;;;;15.82;5.72;;;10.70;99.90;;;;;;4995756;28;20085;-92
2021/10/02 05:55:10;;;;;;;9.15;5.60;;;10.60;99.90;;;;;;5006606;28;20108;-91
2021/10/02 05:57:37;;;;;;;12.93;6.63;;;10.40;99.90;;;;;;5008736;28;20082;-91
2021/10/02 06:00:07;;;;;;;17.48;6.93;;;10.70;99.90;;;;;;5000194;28;20046;-88
2021/10/02 06:02:40;;;;;;;17.17;6.05;;;10.40;99.90;;;;;;5001063;28;20123;-87
2021/10/02 06:05:07;;;;;;;14.63;6.88;;;10.40;99.90;;;;;;5005769;28;20487;-89
2021/10/02 06:07:34;;;;;;;12.93;6.68;;;10.50;99.90;;;;;;5004456;28;20491;-83
2021/10/02 06:10:01;;;;;;;10.50;5.95;;;10.40;99.90;;;;;;5008307;28;20128;-84
2021/10/02 06:12:28;;;;;;;14.15;6.68;;;10.50;99.90;;;;;;5007583;28;20782;-88
2021/10/02 06:14:56;;;;;;;13.60;6.35;;;10.40;99.90;;;;;;5009355;28;20081;-85
2021/10/02 06:17:22;;;;;;;12.15;6.32;;;10.40;99.90;;;;;;5007568;28;20210;-85
2021/10/02 06:19:49;;;;;;;13.77;6.45;;;10.40;99.90;;;;;;5006533;28;20038;-84
2021/10/02 06:22:16;;;;;;;12.13;6.47;;;10.40;99.90;;;;;;5011465;28;20062;-83
2021/10/02 06:24:43;;;;;;;10.90;6.10;;;10.40;99.90;;;;;;5003968;28;20105;-83
2021/10/02 06:27:10;;;;;;;12.52;6.50;;;10.40;99.90;;;;;;5010573;28;20142;-84
2021/10/02 06:29:37;;;;;;;11.02;6.25;;;10.40;99.90;;;;;;5006514;28;20077;-84
2021/10/02 06:32:04;;;;;;;26.60;7.85;;;10.40;99.90;;;;;;5004452;28;20073;-85
2021/10/02 06:34:35;;;;;;;16.50;6.90;;;10.40;99.90;;;;;;5009755;28;20054;-85
2021/10/02 06:37:02;;;;;;;19.98;7.28;;;10.40;99.90;;;;;;4996121;28;20142;-86
2021/10/02 06:39:32;;;;;;;17.52;7.22;;;10.50;99.90;;;;;;5025402;28;20561;-88
2021/10/02 06:42:02;;;;;;;15.40;7.55;;;10.50;99.90;;;;;;5004161;28;20514;-86
2021/10/02 06:44:29;;;;;;;13.27;7.15;;;10.50;99.90;;;;;;4996620;28;20133;-88
2021/10/02 06:46:57;;;;;;;17.55;7.20;;;10.50;99.90;;;;;;5011407;28;20495;-87
2021/10/02 06:49:27;;;;;;;17.48;8.05;;;10.40;99.90;;;;;;5008227;28;20078;-88
2021/10/02 06:51:55;;;;;;;16.70;7.78;;;10.60;99.90;;;;;;4992594;28;20054;-88
2021/10/02 06:54:34;;;;;;;17.83;7.75;;;10.50;99.90;;;;;;4992811;28;20129;-87
2021/10/02 06:57:01;;;;;;;17.20;8.35;;;10.50;99.90;;;;;;5004839;28;20575;-87
2021/10/02 06:59:27;;;;;;;15.60;7.30;;;10.50;99.90;;;;;;5005721;28;20540;-87
2021/10/02 07:01:55;;;;;;;15.02;7.25;;;10.60;99.90;;;;;;5007941;28;20086;-87
2021/10/02 07:04:28;;;;;;;14.05;8.25;;;10.50;99.90;;;;;;5005511;28;20145;-84
2021/10/02 07:06:56;;;;;;;21.65;8.45;;;10.60;99.90;;;;;;5003265;28;20096;-84
2021/10/02 07:09:27;;;;;;;15.05;7.57;;;10.70;99.90;;;;;;5009228;28;20061;-85
2021/10/02 07:11:55;;;;;;;15.55;7.25;;;10.80;99.90;;;;;;5020469;28;20081;-87
2021/10/02 07:14:23;;;;;;;12.57;8.00;;;10.60;99.90;;;;;;5013399;28;20064;-85
2021/10/02 07:16:51;;;;;;;18.58;8.10;;;10.70;99.90;;;;;;5023285;28;20084;-86
2021/10/02 07:19:20;;;;;;;13.27;8.15;;;10.80;99.90;;;;;;5014577;28;20085;-85
2021/10/02 07:21:47;;;;;;;17.75;8.20;;;10.80;99.90;;;;;;5010396;28;20062;-86
2021/10/02 07:24:14;;;;;;;15.95;7.75;;;10.90;99.90;;;;;;5004521;28;20467;-85
2021/10/02 07:26:43;;;;;;;21.15;8.60;;;11.20;99.90;;;;;;5000882;28;20129;-85
2021/10/02 07:29:10;;;;;;;12.75;8.48;;;11.10;99.90;;;;;;5005318;28;20132;-86
2021/10/02 07:31:37;;;;;;;13.02;8.82;;;11.20;99.90;;;;;;4992885;28;20046;-83
2021/10/02 07:34:05;;;;;;;16.50;8.40;;;11.30;99.90;;;;;;5010265;28;20069;-85
2021/10/02 07:36:32;;;;;;;15.02;8.98;;;11.30;99.90;;;;;;5008651;28;20133;-83
2021/10/02 07:39:03;;;;;;;11.60;8.45;;;11.30;99.90;;;;;;5009228;28;20107;-83
2021/10/02 07:41:38;;;;;;;18.38;8.57;;;11.30;99.90;;;;;;5014264;28;20057;-83
2021/10/02 07:44:11;;;;;;;19.05;8.98;;;11.40;99.90;;;;;;5014440;28;20453;-83
2021/10/02 07:46:45;;;;;;;16.95;8.88;;;11.50;99.90;;;;;;5014735;28;20050;-83
2021/10/02 07:49:12;;;;;;;17.25;8.68;;;11.40;99.90;;;;;;5004848;28;20050;-83
2021/10/02 07:51:44;;;;;;;23.80;9.10;;;11.50;99.90;;;;;;5029139;28;20049;-83
2021/10/02 07:54:13;;;;;;;14.82;8.40;;;11.50;99.90;;;;;;5013200;28;20080;-83
2021/10/02 07:56:43;;;;;;;22.65;9.45;;;11.40;99.90;;;;;;5013566;28;20053;-83
2021/10/02 07:59:14;;;;;;;16.13;9.07;;;11.50;99.90;;;;;;5005350;28;20053;-83
2021/10/02 08:01:42;;;;;;;16.58;9.10;;;11.50;99.90;;;;;;5013112;28;20752;-83
2021/10/02 08:04:10;;;;;;;18.13;9.07;;;11.60;99.90;;;;;;5013655;28;20058;-83
2021/10/02 08:06:58;;;;;;;18.88;8.82;;;11.80;99.90;;;;;;5013150;28;20049;-83
2021/10/02 08:09:28;;;;;;;16.35;9.55;;;11.90;99.90;;;;;;5014190;28;20093;-84
2021/10/02 08:11:54;;;;;;;16.13;9.75;;;12.20;99.90;;;;;;5013131;28;20046;-83
2021/10/02 08:14:21;;;;;;;16.42;9.10;;;12.80;99.90;;;;;;5013545;28;20162;-83
2021/10/02 08:16:51;;;;;;;13.02;7.53;;;12.90;99.90;;;;;;5029254;28;20099;-84
2021/10/02 08:19:20;;;;;;;18.95;7.53;;;13.50;99.90;;;;;;5012910;28;20900;-84
2021/10/02 08:21:49;;;;;;;13.10;8.15;;;13.40;99.90;;;;;;5008597;28;20529;-84
2021/10/02 08:24:17;;;;;;;11.10;7.32;;;13.50;99.90;;;;;;5012836;28;20060;-84
2021/10/02 08:26:44;;;;;;;12.48;6.78;;;13.60;99.90;;;;;;5012226;28;20136;-84
2021/10/02 08:29:11;;;;;;;11.38;6.50;;;13.50;99.90;;;;;;5011659;28;20113;-84
2021/10/02 08:31:38;;;;;;;11.35;6.40;;;13.50;99.90;;;;;;5011092;28;20570;-84
2021/10/02 08:34:22;;;;;;;12.55;6.72;;;13.30;99.90;;;;;;5012116;28;20111;-84
2021/10/02 08:36:49;;;;;;;12.77;7.03;;;13.10;99.90;;;;;;5010575;28;20514;-84
2021/10/02 08:39:17;;;;;;;15.57;6.63;;;13.30;99.90;;;;;;5013465;28;20108;-85
2021/10/02 08:41:45;;;;;;;13.20;6.65;;;13.40;99.90;;;;;;5008239;28;20050;-84
2021/10/02 08:44:19;;;;;;;10.85;7.15;;;13.80;99.90;;;;;;5013152;28;20101;-84
2021/10/02 08:46:46;;;;;;;8.57;6.25;;;13.90;99.90;;;;;;5005290;28;20054;-84
2021/10/02 08:49:26;;;;;;;9.70;6.03;;;13.70;99.90;;;;;;5009360;28;20053;-84
2021/10/02 08:51:53;;;;;;;9.70;6.40;;;13.70;99.90;;;;;;5006128;28;20664;-84
2021/10/02 08:54:22;;;;;;;12.05;5.93;;;13.70;99.90;;;;;;5008695;28;20086;-84
2021/10/02 08:56:51;;;;;;;16.50;6.10;;;13.80;99.90;;;;;;5006178;28;20533;-84
2021/10/02 08:59:20;;;;;;;10.63;5.72;;;13.80;99.90;;;;;;5007122;28;20086;-85
2021/10/02 09:01:48;;;;;;;12.95;5.72;;;13.80;99.90;;;;;;5003931;28;20073;-85
2021/10/02 09:04:16;;;;;;;12.70;6.05;;;13.50;99.90;;;;;;5007042;28;20085;-84
2021/10/02 09:06:42;;;;;;;15.50;6.07;;;13.40;99.90;;;;;;5011419;28;20861;-84
2021/10/02 09:09:09;;;;;;;12.18;6.20;;;13.40;99.90;;;;;;5008462;28;20081;-84
2021/10/02 09:11:36;;;;;;;13.98;6.47;;;13.20;99.90;;;;;;5003996;28;20124;-84
2021/10/02 09:14:04;;;;;;;8.75;5.40;;;13.30;99.90;;;;;;5011613;28;20046;-84
2021/10/02 09:16:30;;;;;;;10.80;6.07;;;13.30;99.90;;;;;;5011820;28;20085;-84
2021/10/02 09:18:58;;;;;;;12.05;6.78;;;13.30;99.90;;;;;;5013143;28;20064;-84
2021/10/02 09:21:24;;;;;;;9.13;5.75;;;13.30;99.90;;;;;;5010968;28;20088;-85
2021/10/02 09:23:51;;;;;;;9.38;5.65;;;13.40;99.90;;;;;;5001181;28;20141;-84
2021/10/02 09:26:40;;;;;;;11.35;5.57;;;13.50;99.90;;;;;;5010716;28;20562;-85
2021/10/02 09:29:07;;;;;;;14.88;6.07;;;13.50;99.90;;;;;;5004228;28;20443;-84
2021/10/02 09:31:34;;;;;;;12.50;5.75;;;13.40;99.90;;;;;;5010443;28;20124;-85
2021/10/02 09:34:01;;;;;;;11.02;5.70;;;13.40;99.90;;;;;;5023485;28;20101;-84
2021/10/02 09:36:28;;;;;;;14.07;6.40;;;13.50;99.90;;;;;;4991319;28;20062;-85
2021/10/02 09:38:55;;;;;;;12.98;6.05;;;13.50;99.90;;;;;;4991322;28;20576;-85
2021/10/02 09:41:23;;;;;;;7.47;5.30;;;13.50;99.90;;;;;;5006773;28;20096;-84
2021/10/02 09:43:53;;;;;;;6.95;5.15;;;13.60;99.90;;;;;;5009850;28;20138;-84
2021/10/02 09:46:36;;;;;;;10.05;5.53;;;13.70;99.90;;;;;;5007161;28;20042;-84
2021/10/02 09:49:03;;;;;;;10.68;5.35;;;13.90;99.90;;;;;;5000405;28;20769;-83
2021/10/02 09:51:41;;;;;;;10.98;5.50;;;14.10;99.90;;;;;;4994426;28;20638;-84
2021/10/02 09:54:36;;;;;;;11.13;5.18;;;14.30;99.90;;;;;;5009771;28;20053;-83
2021/10/02 09:57:14;;;;;;;10.68;5.55;;;14.30;99.90;;;;;;5023454;28;20698;-83
2021/10/02 09:59:41;;;;;;;11.07;5.22;;;14.30;99.90;;;;;;5007690;28;20165;-84
2021/10/02 10:02:20;;;;;;;14.57;4.80;;;14.50;99.90;;;;;;5002494;28;20109;-84
2021/10/02 10:04:55;;;;;;;6.38;4.63;;;14.60;99.90;;;;;;5007479;28;20054;-85
2021/10/02 10:07:23;;;;;;;10.23;4.43;;;14.70;99.90;;;;;;5011064;28;20158;-85
2021/10/02 10:10:05;;;;;;;6.90;4.53;;;15.00;99.90;;;;;;5007023;28;20105;-84
2021/10/02 10:12:33;;;;;;;9.82;4.28;;;15.20;99.90;;;;;;5009134;28;20104;-84
2021/10/02 10:15:01;;;;;;;8.70;4.25;;;15.20;99.90;;;;;;5010978;28;20085;-86
2021/10/02 10:17:48;;;;;;;8.63;4.60;;;15.30;99.90;;;;;;5010970;28;20085;-85
2021/10/02 10:20:15;;;;;;;11.48;4.13;;;15.60;99.90;;;;;;5006712;28;20085;-84
2021/10/02 10:22:42;;;;;;;5.00;3.33;;;15.60;99.90;;;;;;5008673;28;20555;-85
2021/10/02 10:25:15;;;;;;;8.25;3.72;;;15.70;99.90;;;;;;5011612;28;20054;-82
2021/10/02 10:27:46;;;;;;;12.02;4.03;;;16.00;99.90;;;;;;5010867;28;20136;-82
2021/10/02 10:30:22;;;;;;;9.57;3.83;;;16.10;99.90;;;;;;5009797;28;20089;-83
2021/10/02 10:33:00;;;;;;;7.28;3.88;;;16.20;99.90;;;;;;5025565;28;20089;-82
2021/10/02 10:35:51;;;;;;;6.05;3.83;;;16.20;99.90;;;;;;5002991;28;20062;-82
2021/10/02 10:38:22;;;;;;;8.35;3.78;;;16.10;99.90;;;;;;5006399;28;20089;-82
2021/10/02 10:40:50;;;;;;;6.13;3.65;;;16.30;99.90;;;;;;5004110;28;20112;-83
2021/10/02 10:43:23;;;;;;;5.43;3.95;;;16.40;99.90;;;;;;5017364;28;20137;-82
2021/10/02 10:45:53;;;;;;;6.07;3.97;;;16.70;99.90;;;;;;5006191;28;20046;-82
2021/10/02 10:48:20;;;;;;;7.88;3.38;;;16.60;99.90;;;;;;5002565;28;20037;-82
2021/10/02 10:50:51;;;;;;;8.70;3.58;;;16.80;99.90;;;;;;5020685;28;20100;-82
2021/10/02 10:53:18;;;;;;;4.15;2.97;;;17.00;99.90;;;;;;5015155;28;20097;-83
2021/10/02 10:55:52;;;;;;;9.30;3.40;;;17.30;99.90;;;;;;5011428;28;20042;-81
2021/10/02 10:58:25;;;;;;;4.75;3.20;;;17.50;99.90;;;;;;5003829;28;20053;-82
2021/10/02 11:00:53;;;;;;;8.23;4.82;;;17.40;99.90;;;;;;5007502;28;20501;-80
2021/10/02 11:03:41;;;;;;;5.47;3.17;;;17.50;99.90;;;;;;5003696;28;20073;-86
2021/10/02 11:06:14;;;;;;;5.40;2.90;;;17.30;99.90;;;;;;5008185;28;20058;-86
2021/10/02 11:09:10;;;;;;;7.38;4.00;;;17.30;99.90;;;;;;5003807;28;20057;-84
2021/10/02 11:11:51;;;;;;;8.90;4.18;;;17.00;99.90;;;;;;5006681;28;20745;-82
2021/10/02 11:14:41;;;;;;;6.85;4.00;;;16.90;99.90;;;;;;5009987;28;20061;-84
2021/10/02 11:17:08;;;;;;;8.90;4.30;;;16.90;99.90;;;;;;5014429;28;20145;-83
2021/10/02 11:19:35;;;;;;;7.50;4.15;;;16.70;99.90;;;;;;5015691;28;20114;-81
2021/10/02 11:22:04;;;;;;;9.95;4.38;;;16.70;99.90;;;;;;5012607;28;20144;-79
2021/10/02 11:24:39;;;;;;;7.15;4.43;;;16.50;99.90;;;;;;5012079;28;20144;-79
2021/10/02 11:27:07;;;;;;;8.93;5.45;;;16.40;99.90;;;;;;5009360;28;20583;-79
2021/10/02 11:29:38;;;;;;;9.32;4.45;;;16.30;99.90;;;;;;5011802;28;20141;-78
2021/10/02 11:32:21;;;;;;;9.40;4.68;;;16.20;99.90;;;;;;5011371;28;20129;-78
2021/10/02 11:35:13;;;;;;;9.57;4.63;;;16.00;99.90;;;;;;5019647;28;20046;-78
2021/10/02 11:37:55;;;;;;;9.18;4.97;;;15.80;99.90;;;;;;5009213;28;20089;-79
2021/10/02 11:40:40;;;;;;;12.50;5.88;;;15.80;99.90;;;;;;5003816;28;20074;-78
2021/10/02 11:43:21;;;;;;;9.90;5.88;;;15.80;99.90;;;;;;5010540;28;20855;-78
2021/10/02 11:45:56;;;;;;;9.85;4.88;;;15.80;99.90;;;;;;5009152;28;20183;-79
2021/10/02 11:48:41;;;;;;;10.18;5.78;;;15.70;99.90;;;;;;5011473;28;20132;-79
2021/10/02 11:51:23;;;;;;;8.77;5.63;;;15.70;99.90;;;;;;5006243;28;20050;-77
2021/10/02 11:53:57;;;;;;;28.88;6.43;;;15.70;99.90;;;;;;5007018;28;20601;-78
2021/10/02 11:56:27;;;;;;;9.73;5.20;;;15.90;99.90;;;;;;5008868;28;20077;-78
2021/10/02 11:58:57;;;;;;;10.98;5.90;;;16.00;99.90;;;;;;5009554;28;20081;-77
2021/10/02 12:01:41;;;;;;;11.60;5.70;;;16.20;99.90;;;;;;5009317;28;20077;-78
2021/10/02 12:04:14;;;;;;;10.10;5.57;;;16.20;99.90;;;;;;5009048;28;20053;-79
2021/10/02 12:06:43;;;;;;;11.80;5.75;;;16.10;99.90;;;;;;5008862;28;20154;-79
2021/10/02 12:09:17;;;;;;;10.20;4.95;;;16.10;99.90;;;;;;5006828;28;20137;-78
2021/10/02 12:11:47;;;;;;;9.20;4.55;;;16.10;99.90;;;;;;5005437;28;20084;-81
2021/10/02 12:14:20;;;;;;;11.98;4.40;;;16.40;99.90;;;;;;5010331;28;20046;-79
2021/10/02 12:16:53;;;;;;;6.13;3.20;;;16.30;99.90;;;;;;5008392;28;20054;-78
2021/10/02 12:19:21;;;;;;;9.30;3.28;;;16.40;99.90;;;;;;5009671;28;20049;-78
2021/10/02 12:22:00;;;;;;;6.32;4.05;;;16.30;99.90;;;;;;5009770;28;20077;-78
2021/10/02 12:24:30;;;;;;;7.43;3.38;;;16.30;99.90;;;;;;5009581;28;20078;-78
2021/10/02 12:27:09;;;;;;;6.25;3.40;;;16.40;99.90;;;;;;5005058;28;20108;-80
2021/10/02 12:29:38;;;;;;;6.20;3.95;;;16.40;99.90;;;;;;5010596;28;20124;-77
2021/10/02 12:32:11;;;;;;;12.05;3.40;;;16.30;99.90;;;;;;5010455;28;20498;-79
2021/10/02 12:34:46;;;;;;;7.40;3.42;;;16.30;99.90;;;;;;5010421;28;20146;-81
2021/10/02 12:37:15;;;;;;;9.57;3.90;;;16.30;99.90;;;;;;5011712;28;20096;-80
2021/10/02 12:39:47;;;;;;;6.70;3.30;;;16.40;99.90;;;;;;5011127;28;20069;-80
2021/10/02 12:42:17;;;;;;;8.60;3.83;;;16.50;99.90;;;;;;5012920;28;20082;-80
2021/10/02 12:44:50;;;;;;;9.68;3.45;;;16.60;99.90;;;;;;5010159;28;20079;-83
2021/10/02 12:47:24;;;;;;;7.70;3.20;;;16.70;99.90;;;;;;5012556;28;20137;-81
2021/10/02 12:50:00;;;;;;;7.53;3.90;;;16.60;99.90;;;;;;5007325;28;20077;-81
2021/10/02 12:52:27;;;;;;;9.13;4.60;;;16.50;99.90;;;;;;5009267;28;20153;-83
2021/10/02 12:54:56;;;;;;;10.23;3.85;;;16.80;99.90;;;;;;5005519;28;20470;-79
2021/10/02 12:57:34;;;;;;;11.07;3.00;;;16.90;99.90;;;;;;5005539;28;20073;-78
2021/10/02 13:00:17;;;;;;;13.93;3.55;;;16.80;99.90;;;;;;5009139;28;20733;-80
2021/10/02 13:02:49;;;;;;;10.40;3.22;;;16.90;99.90;;;;;;5010600;28;20065;-79
2021/10/02 13:05:19;;;;;;;4.95;3.17;;;16.80;99.90;;;;;;5021686;28;20042;-82
2021/10/02 13:07:51;;;;;;;8.70;4.20;;;16.90;99.90;;;;;;5007140;28;20054;-81
2021/10/02 13:10:19;;;;;;;6.63;5.20;;;17.00;99.90;;;;;;4991879;28;20813;-81
2021/10/02 13:12:58;;;;;;;7.78;5.15;;;16.70;99.90;;;;;;4999978;28;20104;-80
2021/10/02 13:15:42;;;;;;;10.80;6.32;;;16.70;99.90;;;;;;5002232;28;20080;-81
2021/10/02 13:18:12;;;;;;;5.43;3.33;;;16.70;99.90;;;;;;4993000;28;20483;-81
2021/10/02 13:20:47;;;;;;;5.22;3.20;;;16.70;99.90;;;;;;4998106;28;20084;-81
2021/10/02 13:23:17;;;;;;;10.70;3.13;;;16.80;99.90;;;;;;5010961;28;20088;-81
2021/10/02 13:25:46;;;;;;;6.18;2.92;;;16.80;99.90;;;;;;5007598;28;20058;-81
2021/10/02 13:28:25;;;;;;;5.90;2.75;;;16.90;99.90;;;;;;5010705;28;20455;-81
2021/10/02 13:30:54;;;;;;;11.20;4.32;;;16.90;99.90;;;;;;5007523;28;20085;-81
2021/10/02 13:33:23;;;;;;;9.50;3.17;;;17.10;99.90;;;;;;5007622;28;20147;-81
2021/10/02 13:35:51;;;;;;;6.05;2.78;;;17.30;99.90;;;;;;5001769;28;20092;-81
2021/10/02 13:38:39;;;;;;;9.27;2.78;;;17.30;99.90;;;;;;5010933;28;20057;-81
2021/10/02 13:41:12;;;;;;;11.15;2.88;;;17.30;99.90;;;;;;5012357;28;20141;-82
2021/10/02 13:43:50;;;;;;;8.20;3.10;;;17.20;99.90;;;;;;5012271;28;20093;-82
2021/10/02 13:46:33;;;;;;;5.85;2.63;;;17.00;99.90;;;;;;5010677;28;20092;-82
2021/10/02 13:49:02;;;;;;;10.48;3.10;;;16.90;99.90;;;;;;5010481;28;20046;-81
2021/10/02 13:51:29;;;;;;;3.75;2.65;;;16.80;99.90;;;;;;5011836;28;20521;-81
2021/10/02 13:53:57;;;;;;;4.63;2.83;;;16.70;99.90;;;;;;5006296;28;20078;-81